首页
METAR-TAF:

METAR-TAF

机场 :

巴厘巴板, 印度尼西亚

纬度: 01-16-06S, 经度: 116-53-40E, 海拔: 4米

当前天气观测

该预报发布于29分钟前的00:00 UTC
风速5节,风向西北
温度 28°C
湿度 89%
气压 1011 hPa
能见度10公里或以上
散云层高于2000英尺

METAR: WALL 190000Z 31005KT 9999 SCT020 28/26 Q1011

时间: 07:29 (00:29 UTC)

预报

该预报发布于7小时和29分钟前的17:00 UTC
预报有效从18日的 18点(UTC)到 19日的 24点(UTC)
风速3节,风向北转西北
能見度: 8000
少量云层高于2000英尺
成为
从 18日的 22点(UTC)到 18日的 24点(UTC)
能见度10公里或以上
散云层高于2000英尺

TAF: WALL 181700Z 1818/1924 33003KT 8000 FEW020 BECMG 1822/1824 9999 SCT020

超过4000个机场的气象观测和天气预报(METAR&TAF报告)。

可查询的气象台以黄色和红色小点在地图上表示。

将鼠标移到小点上方,可查看气象台名称。

然后点击查看天气观测和预报。

如需切换地图:点击带黑十字的绿色按钮放大地图;点击带横线的绿色按钮缩小地图;或者点击绿色箭头查看邻近地区的地图。


METAR-TAF: